Babcock, Illinois
Current Conditions -  °F | °C
As of 3:52 AM on Thursday 23 Oct 2014 (Local Time) from KMLI Reporting Station
Clear Clear  
Wind Chill: 41°   Ceiling: Unl
Heat Index: 41°   Visibility: 10mi
Dew Point: 35°   Wind: 3mph
Humidity: 79%   Direction: 120°ESE
Pressure: 30.16"   Gusts: NA
Location:  41.5228°N, 90.3951°W
Report Text: KMLI 230852Z AUTO 12003KT 10SM CLR 05/02 A3016 RMK AO2 SLP214 T00500017 58009
Loading
Personal Weather Stations






























Interactive Weather Map New forecast layout! Learn more

10-Day Weather Forecast

Advertisements
Track Severe Weather on mobile